sensor_id;sensor_type;location;lat;lon;timestamp;P1;durP1;ratioP1;P2;durP2;ratioP2
67804;SDS011;54603;45.638;11.714;2023-04-16T00:00:20;3.00;;;1.80;;
67804;SDS011;54603;45.638;11.714;2023-04-16T00:02:46;2.20;;;1.90;;
67804;SDS011;54603;45.638;11.714;2023-04-16T00:05:12;2.80;;;1.70;;
67804;SDS011;54603;45.638;11.714;2023-04-16T00:07:38;1.60;;;1.50;;
67804;SDS011;54603;45.638;11.714;2023-04-16T00:10:05;2.30;;;1.60;;
67804;SDS011;54603;45.638;11.714;2023-04-16T00:12:31;1.90;;;1.70;;
67804;SDS011;54603;45.638;11.714;2023-04-16T00:14:56;2.90;;;1.70;;
67804;SDS011;54603;45.638;11.714;2023-04-16T00:17:22;2.10;;;1.80;;
67804;SDS011;54603;45.638;11.714;2023-04-16T00:19:47;3.40;;;2.00;;
67804;SDS011;54603;45.638;11.714;2023-04-16T00:22:13;2.80;;;2.00;;
67804;SDS011;54603;45.638;11.714;2023-04-16T00:24:38;2.70;;;1.70;;
67804;SDS011;54603;45.638;11.714;2023-04-16T00:27:05;3.30;;;2.20;;
67804;SDS011;54603;45.638;11.714;2023-04-16T00:29:30;2.30;;;1.60;;
67804;SDS011;54603;45.638;11.714;2023-04-16T00:31:57;2.20;;;1.60;;
67804;SDS011;54603;45.638;11.714;2023-04-16T00:34:23;1.90;;;1.60;;
67804;SDS011;54603;45.638;11.714;2023-04-16T00:36:48;2.60;;;1.90;;
67804;SDS011;54603;45.638;11.714;2023-04-16T00:39:14;2.20;;;1.60;;
67804;SDS011;54603;45.638;11.714;2023-04-16T00:41:40;2.90;;;1.90;;
67804;SDS011;54603;45.638;11.714;2023-04-16T00:44:07;1.80;;;1.60;;
67804;SDS011;54603;45.638;11.714;2023-04-16T00:46:32;2.50;;;1.90;;
67804;SDS011;54603;45.638;11.714;2023-04-16T00:48:59;2.80;;;1.70;;
67804;SDS011;54603;45.638;11.714;2023-04-16T00:51:25;2.00;;;1.80;;
67804;SDS011;54603;45.638;11.714;2023-04-16T00:53:51;2.70;;;1.80;;
67804;SDS011;54603;45.638;11.714;2023-04-16T00:56:16;2.60;;;1.80;;
67804;SDS011;54603;45.638;11.714;2023-04-16T00:58:43;3.40;;;1.80;;
67804;SDS011;54603;45.638;11.714;2023-04-16T01:01:09;2.60;;;1.60;;
67804;SDS011;54603;45.638;11.714;2023-04-16T01:03:38;2.10;;;1.80;;
67804;SDS011;54603;45.638;11.714;2023-04-16T01:06:07;2.30;;;1.90;;
67804;SDS011;54603;45.638;11.714;2023-04-16T01:08:32;3.00;;;2.00;;
67804;SDS011;54603;45.638;11.714;2023-04-16T01:10:58;2.10;;;1.90;;
67804;SDS011;54603;45.638;11.714;2023-04-16T01:13:23;2.10;;;1.90;;
67804;SDS011;54603;45.638;11.714;2023-04-16T01:15:49;1.70;;;1.50;;
67804;SDS011;54603;45.638;11.714;2023-04-16T01:18:15;3.30;;;1.70;;
67804;SDS011;54603;45.638;11.714;2023-04-16T01:20:42;3.80;;;1.70;;
67804;SDS011;54603;45.638;11.714;2023-04-16T01:23:07;1.60;;;1.50;;
67804;SDS011;54603;45.638;11.714;2023-04-16T01:25:33;1.80;;;1.40;;
67804;SDS011;54603;45.638;11.714;2023-04-16T01:27:58;2.00;;;1.70;;
67804;SDS011;54603;45.638;11.714;2023-04-16T01:30:24;1.90;;;1.60;;
67804;SDS011;54603;45.638;11.714;2023-04-16T01:32:50;1.90;;;1.60;;
67804;SDS011;54603;45.638;11.714;2023-04-16T01:35:15;3.40;;;1.50;;
67804;SDS011;54603;45.638;11.714;2023-04-16T01:37:42;1.70;;;1.60;;
67804;SDS011;54603;45.638;11.714;2023-04-16T01:40:08;2.30;;;1.80;;
67804;SDS011;54603;45.638;11.714;2023-04-16T01:42:34;2.90;;;1.80;;
67804;SDS011;54603;45.638;11.714;2023-04-16T01:44:59;3.60;;;1.70;;
67804;SDS011;54603;45.638;11.714;2023-04-16T01:47:25;2.10;;;1.60;;
67804;SDS011;54603;45.638;11.714;2023-04-16T01:49:50;2.60;;;1.80;;
67804;SDS011;54603;45.638;11.714;2023-04-16T01:52:16;2.60;;;1.60;;
67804;SDS011;54603;45.638;11.714;2023-04-16T01:54:41;3.60;;;1.80;;
67804;SDS011;54603;45.638;11.714;2023-04-16T01:57:07;1.80;;;1.50;;
67804;SDS011;54603;45.638;11.714;2023-04-16T01:59:33;1.70;;;1.50;;
67804;SDS011;54603;45.638;11.714;2023-04-16T02:02:00;1.80;;;1.60;;
67804;SDS011;54603;45.638;11.714;2023-04-16T02:04:29;1.70;;;1.50;;
67804;SDS011;54603;45.638;11.714;2023-04-16T02:06:54;2.40;;;1.70;;
67804;SDS011;54603;45.638;11.714;2023-04-16T02:09:20;1.90;;;1.70;;
67804;SDS011;54603;45.638;11.714;2023-04-16T02:11:46;2.00;;;1.70;;
67804;SDS011;54603;45.638;11.714;2023-04-16T02:14:11;1.80;;;1.50;;
67804;SDS011;54603;45.638;11.714;2023-04-16T02:16:37;1.60;;;1.50;;
67804;SDS011;54603;45.638;11.714;2023-04-16T02:19:02;2.50;;;1.80;;
67804;SDS011;54603;45.638;11.714;2023-04-16T02:21:28;2.30;;;1.70;;
67804;SDS011;54603;45.638;11.714;2023-04-16T02:23:54;2.20;;;1.50;;
67804;SDS011;54603;45.638;11.714;2023-04-16T02:26:19;2.10;;;1.70;;
67804;SDS011;54603;45.638;11.714;2023-04-16T02:28:45;2.80;;;1.80;;
67804;SDS011;54603;45.638;11.714;2023-04-16T02:31:10;1.80;;;1.50;;
67804;SDS011;54603;45.638;11.714;2023-04-16T02:33:36;2.00;;;1.50;;
67804;SDS011;54603;45.638;11.714;2023-04-16T02:36:01;1.90;;;1.50;;
67804;SDS011;54603;45.638;11.714;2023-04-16T02:38:27;2.70;;;1.60;;
67804;SDS011;54603;45.638;11.714;2023-04-16T02:40:52;3.10;;;1.60;;
67804;SDS011;54603;45.638;11.714;2023-04-16T02:43:18;1.80;;;1.50;;
67804;SDS011;54603;45.638;11.714;2023-04-16T02:45:43;2.70;;;1.50;;
67804;SDS011;54603;45.638;11.714;2023-04-16T02:48:09;2.00;;;1.60;;
67804;SDS011;54603;45.638;11.714;2023-04-16T02:50:34;3.00;;;1.70;;
67804;SDS011;54603;45.638;11.714;2023-04-16T02:53:00;1.60;;;1.50;;
67804;SDS011;54603;45.638;11.714;2023-04-16T02:55:26;2.20;;;1.90;;
67804;SDS011;54603;45.638;11.714;2023-04-16T02:57:53;2.30;;;1.80;;
67804;SDS011;54603;45.638;11.714;2023-04-16T03:00:18;2.00;;;1.80;;
67804;SDS011;54603;45.638;11.714;2023-04-16T03:02:44;2.30;;;1.90;;
67804;SDS011;54603;45.638;11.714;2023-04-16T03:05:10;2.80;;;1.90;;
67804;SDS011;54603;45.638;11.714;2023-04-16T03:07:36;2.20;;;1.90;;
67804;SDS011;54603;45.638;11.714;2023-04-16T03:10:03;2.40;;;1.80;;
67804;SDS011;54603;45.638;11.714;2023-04-16T03:12:30;2.10;;;1.70;;
67804;SDS011;54603;45.638;11.714;2023-04-16T03:14:55;2.20;;;1.60;;
67804;SDS011;54603;45.638;11.714;2023-04-16T03:17:21;3.50;;;2.10;;
67804;SDS011;54603;45.638;11.714;2023-04-16T03:19:46;1.90;;;1.60;;
67804;SDS011;54603;45.638;11.714;2023-04-16T03:22:12;1.80;;;1.60;;
67804;SDS011;54603;45.638;11.714;2023-04-16T03:24:37;1.90;;;1.70;;
67804;SDS011;54603;45.638;11.714;2023-04-16T03:27:03;2.90;;;1.90;;
67804;SDS011;54603;45.638;11.714;2023-04-16T03:29:28;2.20;;;1.80;;
67804;SDS011;54603;45.638;11.714;2023-04-16T03:31:54;1.90;;;1.70;;
67804;SDS011;54603;45.638;11.714;2023-04-16T03:34:20;2.60;;;1.80;;
67804;SDS011;54603;45.638;11.714;2023-04-16T03:36:45;2.40;;;1.70;;
67804;SDS011;54603;45.638;11.714;2023-04-16T03:39:11;2.30;;;1.80;;
67804;SDS011;54603;45.638;11.714;2023-04-16T03:41:36;1.90;;;1.60;;
67804;SDS011;54603;45.638;11.714;2023-04-16T03:44:02;3.00;;;1.70;;
67804;SDS011;54603;45.638;11.714;2023-04-16T03:46:27;2.40;;;1.60;;
67804;SDS011;54603;45.638;11.714;2023-04-16T03:48:53;3.00;;;1.80;;
67804;SDS011;54603;45.638;11.714;2023-04-16T03:51:18;1.70;;;1.60;;
67804;SDS011;54603;45.638;11.714;2023-04-16T03:53:44;2.40;;;1.70;;
67804;SDS011;54603;45.638;11.714;2023-04-16T03:56:10;2.10;;;1.40;;
67804;SDS011;54603;45.638;11.714;2023-04-16T03:58:35;2.00;;;1.70;;
67804;SDS011;54603;45.638;11.714;2023-04-16T04:01:01;1.60;;;1.50;;
67804;SDS011;54603;45.638;11.714;2023-04-16T04:03:26;2.10;;;1.50;;
67804;SDS011;54603;45.638;11.714;2023-04-16T04:05:52;1.90;;;1.70;;
67804;SDS011;54603;45.638;11.714;2023-04-16T04:08:17;2.20;;;1.70;;
67804;SDS011;54603;45.638;11.714;2023-04-16T04:10:42;2.10;;;1.60;;
67804;SDS011;54603;45.638;11.714;2023-04-16T04:13:09;1.70;;;1.60;;
67804;SDS011;54603;45.638;11.714;2023-04-16T04:15:35;3.90;;;1.80;;
67804;SDS011;54603;45.638;11.714;2023-04-16T04:18:01;2.30;;;1.90;;
67804;SDS011;54603;45.638;11.714;2023-04-16T04:20:26;2.50;;;1.90;;
67804;SDS011;54603;45.638;11.714;2023-04-16T04:22:52;1.90;;;1.60;;
67804;SDS011;54603;45.638;11.714;2023-04-16T04:25:17;1.60;;;1.50;;
67804;SDS011;54603;45.638;11.714;2023-04-16T04:27:43;2.00;;;1.80;;
67804;SDS011;54603;45.638;11.714;2023-04-16T04:30:08;2.20;;;1.60;;
67804;SDS011;54603;45.638;11.714;2023-04-16T04:32:34;1.50;;;1.40;;
67804;SDS011;54603;45.638;11.714;2023-04-16T04:35:00;2.10;;;1.90;;
67804;SDS011;54603;45.638;11.714;2023-04-16T04:37:26;2.30;;;1.40;;
67804;SDS011;54603;45.638;11.714;2023-04-16T04:39:52;2.00;;;1.60;;
67804;SDS011;54603;45.638;11.714;2023-04-16T04:42:19;2.90;;;1.80;;
67804;SDS011;54603;45.638;11.714;2023-04-16T04:44:45;2.20;;;1.60;;
67804;SDS011;54603;45.638;11.714;2023-04-16T04:47:11;1.90;;;1.70;;
67804;SDS011;54603;45.638;11.714;2023-04-16T04:49:37;2.10;;;1.90;;
67804;SDS011;54603;45.638;11.714;2023-04-16T04:52:02;1.70;;;1.40;;
67804;SDS011;54603;45.638;11.714;2023-04-16T04:54:29;1.90;;;1.60;;
67804;SDS011;54603;45.638;11.714;2023-04-16T04:56:55;1.90;;;1.70;;
67804;SDS011;54603;45.638;11.714;2023-04-16T04:59:20;2.30;;;1.60;;
67804;SDS011;54603;45.638;11.714;2023-04-16T05:01:46;3.10;;;2.10;;
67804;SDS011;54603;45.638;11.714;2023-04-16T05:04:12;2.10;;;1.90;;
67804;SDS011;54603;45.638;11.714;2023-04-16T05:06:37;2.30;;;1.70;;
67804;SDS011;54603;45.638;11.714;2023-04-16T05:09:03;4.60;;;2.20;;
67804;SDS011;54603;45.638;11.714;2023-04-16T05:11:28;2.10;;;1.90;;
67804;SDS011;54603;45.638;11.714;2023-04-16T05:13:54;3.00;;;1.70;;
67804;SDS011;54603;45.638;11.714;2023-04-16T05:16:19;3.10;;;1.80;;
67804;SDS011;54603;45.638;11.714;2023-04-16T05:18:45;2.20;;;2.00;;
67804;SDS011;54603;45.638;11.714;2023-04-16T05:21:10;2.40;;;2.00;;
67804;SDS011;54603;45.638;11.714;2023-04-16T05:23:36;1.60;;;1.50;;
67804;SDS011;54603;45.638;11.714;2023-04-16T05:26:02;2.20;;;1.90;;
67804;SDS011;54603;45.638;11.714;2023-04-16T05:28:28;1.90;;;1.60;;
67804;SDS011;54603;45.638;11.714;2023-04-16T05:30:54;2.40;;;1.90;;
67804;SDS011;54603;45.638;11.714;2023-04-16T05:33:20;3.80;;;2.10;;
67804;SDS011;54603;45.638;11.714;2023-04-16T05:35:45;2.80;;;1.80;;
67804;SDS011;54603;45.638;11.714;2023-04-16T05:38:11;2.50;;;2.00;;
67804;SDS011;54603;45.638;11.714;2023-04-16T05:40:36;3.80;;;1.90;;
67804;SDS011;54603;45.638;11.714;2023-04-16T05:43:02;3.10;;;1.80;;
67804;SDS011;54603;45.638;11.714;2023-04-16T05:45:27;4.90;;;2.00;;
67804;SDS011;54603;45.638;11.714;2023-04-16T05:47:53;3.40;;;1.90;;
67804;SDS011;54603;45.638;11.714;2023-04-16T05:50:18;3.10;;;2.10;;
67804;SDS011;54603;45.638;11.714;2023-04-16T05:52:44;3.20;;;2.30;;
67804;SDS011;54603;45.638;11.714;2023-04-16T05:55:09;2.40;;;2.20;;
67804;SDS011;54603;45.638;11.714;2023-04-16T05:57:35;2.30;;;2.00;;
67804;SDS011;54603;45.638;11.714;2023-04-16T06:00:00;3.70;;;2.30;;
67804;SDS011;54603;45.638;11.714;2023-04-16T06:02:26;3.00;;;1.80;;
67804;SDS011;54603;45.638;11.714;2023-04-16T06:04:51;9.80;;;2.20;;
67804;SDS011;54603;45.638;11.714;2023-04-16T06:07:17;2.60;;;2.00;;
67804;SDS011;54603;45.638;11.714;2023-04-16T06:09:43;3.50;;;2.10;;
67804;SDS011;54603;45.638;11.714;2023-04-16T06:12:09;3.50;;;1.80;;
67804;SDS011;54603;45.638;11.714;2023-04-16T06:14:34;3.30;;;2.00;;
67804;SDS011;54603;45.638;11.714;2023-04-16T06:17:00;4.80;;;2.00;;
67804;SDS011;54603;45.638;11.714;2023-04-16T06:19:26;3.20;;;1.90;;
67804;SDS011;54603;45.638;11.714;2023-04-16T06:21:51;2.60;;;2.20;;
67804;SDS011;54603;45.638;11.714;2023-04-16T06:24:17;5.00;;;2.20;;
67804;SDS011;54603;45.638;11.714;2023-04-16T06:26:43;4.80;;;2.20;;
67804;SDS011;54603;45.638;11.714;2023-04-16T06:29:09;6.70;;;1.90;;
67804;SDS011;54603;45.638;11.714;2023-04-16T06:31:35;4.00;;;1.90;;
67804;SDS011;54603;45.638;11.714;2023-04-16T06:34:02;2.60;;;1.90;;
67804;SDS011;54603;45.638;11.714;2023-04-16T06:36:31;3.60;;;1.70;;
67804;SDS011;54603;45.638;11.714;2023-04-16T06:38:58;7.60;;;2.10;;
67804;SDS011;54603;45.638;11.714;2023-04-16T06:41:24;6.00;;;1.90;;
67804;SDS011;54603;45.638;11.714;2023-04-16T06:43:50;4.30;;;2.00;;
67804;SDS011;54603;45.638;11.714;2023-04-16T06:46:16;3.50;;;1.80;;
67804;SDS011;54603;45.638;11.714;2023-04-16T06:48:41;6.40;;;1.90;;
67804;SDS011;54603;45.638;11.714;2023-04-16T06:51:07;3.70;;;1.90;;
67804;SDS011;54603;45.638;11.714;2023-04-16T06:53:33;7.80;;;2.00;;
67804;SDS011;54603;45.638;11.714;2023-04-16T06:55:59;4.40;;;1.70;;
67804;SDS011;54603;45.638;11.714;2023-04-16T06:58:24;5.10;;;2.00;;
67804;SDS011;54603;45.638;11.714;2023-04-16T07:00:50;4.00;;;1.90;;
67804;SDS011;54603;45.638;11.714;2023-04-16T07:03:15;6.70;;;2.30;;
67804;SDS011;54603;45.638;11.714;2023-04-16T07:05:41;4.10;;;2.00;;
67804;SDS011;54603;45.638;11.714;2023-04-16T07:08:06;5.00;;;1.80;;
67804;SDS011;54603;45.638;11.714;2023-04-16T07:10:32;3.10;;;2.00;;
67804;SDS011;54603;45.638;11.714;2023-04-16T07:12:57;3.10;;;2.20;;
67804;SDS011;54603;45.638;11.714;2023-04-16T07:15:25;3.00;;;2.30;;
67804;SDS011;54603;45.638;11.714;2023-04-16T07:17:51;2.60;;;2.00;;
67804;SDS011;54603;45.638;11.714;2023-04-16T07:20:16;3.50;;;1.90;;
67804;SDS011;54603;45.638;11.714;2023-04-16T07:22:42;4.60;;;2.00;;
67804;SDS011;54603;45.638;11.714;2023-04-16T07:25:08;2.30;;;1.70;;
67804;SDS011;54603;45.638;11.714;2023-04-16T07:27:33;2.70;;;1.90;;
67804;SDS011;54603;45.638;11.714;2023-04-16T07:29:59;5.40;;;1.80;;
67804;SDS011;54603;45.638;11.714;2023-04-16T07:32:24;4.80;;;2.10;;
67804;SDS011;54603;45.638;11.714;2023-04-16T07:34:50;3.50;;;1.90;;
67804;SDS011;54603;45.638;11.714;2023-04-16T07:37:16;3.10;;;2.00;;
67804;SDS011;54603;45.638;11.714;2023-04-16T07:39:41;3.10;;;2.00;;
67804;SDS011;54603;45.638;11.714;2023-04-16T07:42:07;3.50;;;1.70;;
67804;SDS011;54603;45.638;11.714;2023-04-16T07:44:32;6.80;;;2.00;;
67804;SDS011;54603;45.638;11.714;2023-04-16T07:46:58;6.50;;;1.80;;
67804;SDS011;54603;45.638;11.714;2023-04-16T07:49:23;1.80;;;1.50;;
67804;SDS011;54603;45.638;11.714;2023-04-16T07:51:49;3.90;;;1.90;;
67804;SDS011;54603;45.638;11.714;2023-04-16T07:54:15;3.20;;;2.00;;
67804;SDS011;54603;45.638;11.714;2023-04-16T07:56:40;4.30;;;2.00;;
67804;SDS011;54603;45.638;11.714;2023-04-16T07:59:06;2.30;;;1.50;;
67804;SDS011;54603;45.638;11.714;2023-04-16T08:01:31;3.80;;;1.60;;
67804;SDS011;54603;45.638;11.714;2023-04-16T08:03:57;6.20;;;1.80;;
67804;SDS011;54603;45.638;11.714;2023-04-16T08:06:23;4.10;;;1.70;;
67804;SDS011;54603;45.638;11.714;2023-04-16T08:08:50;4.50;;;1.80;;
67804;SDS011;54603;45.638;11.714;2023-04-16T08:11:16;6.00;;;1.80;;
67804;SDS011;54603;45.638;11.714;2023-04-16T08:13:41;4.00;;;2.00;;
67804;SDS011;54603;45.638;11.714;2023-04-16T08:16:07;3.70;;;1.90;;
67804;SDS011;54603;45.638;11.714;2023-04-16T08:18:33;4.80;;;2.00;;
67804;SDS011;54603;45.638;11.714;2023-04-16T08:20:58;2.20;;;1.50;;
67804;SDS011;54603;45.638;11.714;2023-04-16T08:23:24;5.60;;;2.00;;
67804;SDS011;54603;45.638;11.714;2023-04-16T08:25:49;3.90;;;2.00;;
67804;SDS011;54603;45.638;11.714;2023-04-16T08:28:15;2.80;;;1.80;;
67804;SDS011;54603;45.638;11.714;2023-04-16T08:30:41;2.20;;;1.60;;
67804;SDS011;54603;45.638;11.714;2023-04-16T08:33:06;6.00;;;1.70;;
67804;SDS011;54603;45.638;11.714;2023-04-16T08:35:32;3.30;;;1.50;;
67804;SDS011;54603;45.638;11.714;2023-04-16T08:37:58;6.00;;;1.70;;
67804;SDS011;54603;45.638;11.714;2023-04-16T08:40:24;2.90;;;1.60;;
67804;SDS011;54603;45.638;11.714;2023-04-16T08:42:52;3.30;;;1.40;;
67804;SDS011;54603;45.638;11.714;2023-04-16T08:45:18;3.70;;;1.60;;
67804;SDS011;54603;45.638;11.714;2023-04-16T08:47:44;4.50;;;1.80;;
67804;SDS011;54603;45.638;11.714;2023-04-16T08:50:13;3.30;;;1.40;;
67804;SDS011;54603;45.638;11.714;2023-04-16T08:52:53;4.10;;;1.50;;
67804;SDS011;54603;45.638;11.714;2023-04-16T08:55:25;4.80;;;1.60;;
67804;SDS011;54603;45.638;11.714;2023-04-16T08:57:57;2.60;;;1.60;;
67804;SDS011;54603;45.638;11.714;2023-04-16T09:00:24;2.40;;;1.40;;
67804;SDS011;54603;45.638;11.714;2023-04-16T09:02:50;4.00;;;1.50;;
67804;SDS011;54603;45.638;11.714;2023-04-16T09:05:16;2.20;;;1.40;;
67804;SDS011;54603;45.638;11.714;2023-04-16T09:07:43;4.40;;;1.50;;
67804;SDS011;54603;45.638;11.714;2023-04-16T09:10:10;1.60;;;1.20;;
67804;SDS011;54603;45.638;11.714;2023-04-16T09:12:36;4.10;;;1.40;;
67804;SDS011;54603;45.638;11.714;2023-04-16T09:15:02;1.60;;;1.30;;
67804;SDS011;54603;45.638;11.714;2023-04-16T09:17:30;3.50;;;1.30;;
67804;SDS011;54603;45.638;11.714;2023-04-16T09:19:56;6.80;;;1.30;;
67804;SDS011;54603;45.638;11.714;2023-04-16T09:22:22;1.60;;;1.10;;
67804;SDS011;54603;45.638;11.714;2023-04-16T09:24:47;3.40;;;1.60;;
67804;SDS011;54603;45.638;11.714;2023-04-16T09:27:13;2.60;;;1.20;;
67804;SDS011;54603;45.638;11.714;2023-04-16T09:29:39;2.40;;;1.40;;
67804;SDS011;54603;45.638;11.714;2023-04-16T09:32:06;1.70;;;1.20;;
67804;SDS011;54603;45.638;11.714;2023-04-16T09:34:33;2.20;;;1.20;;
67804;SDS011;54603;45.638;11.714;2023-04-16T09:37:15;3.20;;;1.50;;
67804;SDS011;54603;45.638;11.714;2023-04-16T09:42:07;1.70;;;1.40;;
67804;SDS011;54603;45.638;11.714;2023-04-16T09:44:36;2.00;;;1.30;;
67804;SDS011;54603;45.638;11.714;2023-04-16T09:47:06;1.80;;;1.30;;
67804;SDS011;54603;45.638;11.714;2023-04-16T09:49:33;1.50;;;1.10;;
67804;SDS011;54603;45.638;11.714;2023-04-16T09:52:00;3.00;;;1.20;;
67804;SDS011;54603;45.638;11.714;2023-04-16T09:54:26;6.90;;;1.60;;
67804;SDS011;54603;45.638;11.714;2023-04-16T09:56:54;4.80;;;1.40;;
67804;SDS011;54603;45.638;11.714;2023-04-16T09:59:21;3.00;;;1.30;;
67804;SDS011;54603;45.638;11.714;2023-04-16T10:01:47;4.90;;;1.30;;
67804;SDS011;54603;45.638;11.714;2023-04-16T10:04:13;3.60;;;1.10;;
67804;SDS011;54603;45.638;11.714;2023-04-16T10:06:40;1.80;;;1.10;;
67804;SDS011;54603;45.638;11.714;2023-04-16T10:09:06;4.00;;;1.50;;
67804;SDS011;54603;45.638;11.714;2023-04-16T10:11:32;5.20;;;1.20;;
67804;SDS011;54603;45.638;11.714;2023-04-16T10:13:58;3.10;;;1.20;;
67804;SDS011;54603;45.638;11.714;2023-04-16T10:16:24;2.70;;;1.10;;
67804;SDS011;54603;45.638;11.714;2023-04-16T10:18:50;1.90;;;1.30;;
67804;SDS011;54603;45.638;11.714;2023-04-16T10:21:17;3.90;;;1.40;;
67804;SDS011;54603;45.638;11.714;2023-04-16T10:23:43;1.80;;;1.30;;
67804;SDS011;54603;45.638;11.714;2023-04-16T10:26:09;4.10;;;1.30;;
67804;SDS011;54603;45.638;11.714;2023-04-16T10:28:35;3.20;;;1.30;;
67804;SDS011;54603;45.638;11.714;2023-04-16T10:31:04;3.50;;;1.30;;
67804;SDS011;54603;45.638;11.714;2023-04-16T10:33:36;2.90;;;1.40;;
67804;SDS011;54603;45.638;11.714;2023-04-16T10:38:48;4.40;;;1.40;;
67804;SDS011;54603;45.638;11.714;2023-04-16T10:41:15;3.50;;;1.20;;
67804;SDS011;54603;45.638;11.714;2023-04-16T10:43:44;2.00;;;1.10;;
67804;SDS011;54603;45.638;11.714;2023-04-16T10:46:24;1.90;;;1.30;;
67804;SDS011;54603;45.638;11.714;2023-04-16T10:48:52;3.30;;;1.00;;
67804;SDS011;54603;45.638;11.714;2023-04-16T10:56:27;3.20;;;1.50;;
67804;SDS011;54603;45.638;11.714;2023-04-16T10:58:56;1.90;;;1.10;;
67804;SDS011;54603;45.638;11.714;2023-04-16T11:01:28;1.80;;;1.30;;
67804;SDS011;54603;45.638;11.714;2023-04-16T11:03:55;2.40;;;1.30;;
67804;SDS011;54603;45.638;11.714;2023-04-16T11:06:23;2.70;;;1.40;;
67804;SDS011;54603;45.638;11.714;2023-04-16T11:08:50;4.50;;;1.10;;
67804;SDS011;54603;45.638;11.714;2023-04-16T11:11:17;3.30;;;1.40;;
67804;SDS011;54603;45.638;11.714;2023-04-16T11:13:43;6.50;;;1.50;;
67804;SDS011;54603;45.638;11.714;2023-04-16T11:16:12;5.50;;;1.10;;
67804;SDS011;54603;45.638;11.714;2023-04-16T11:18:38;3.90;;;1.30;;
67804;SDS011;54603;45.638;11.714;2023-04-16T11:21:08;3.30;;;1.30;;
67804;SDS011;54603;45.638;11.714;2023-04-16T11:23:44;3.40;;;1.50;;
67804;SDS011;54603;45.638;11.714;2023-04-16T11:26:21;4.10;;;1.50;;
67804;SDS011;54603;45.638;11.714;2023-04-16T11:28:52;2.20;;;1.20;;
67804;SDS011;54603;45.638;11.714;2023-04-16T11:31:18;2.80;;;1.20;;
67804;SDS011;54603;45.638;11.714;2023-04-16T11:33:44;1.50;;;1.10;;
67804;SDS011;54603;45.638;11.714;2023-04-16T11:36:10;2.50;;;1.20;;
67804;SDS011;54603;45.638;11.714;2023-04-16T11:38:35;2.30;;;1.30;;
67804;SDS011;54603;45.638;11.714;2023-04-16T11:41:01;2.50;;;1.30;;
67804;SDS011;54603;45.638;11.714;2023-04-16T11:43:27;2.30;;;1.30;;
67804;SDS011;54603;45.638;11.714;2023-04-16T11:45:56;3.70;;;1.30;;
67804;SDS011;54603;45.638;11.714;2023-04-16T11:48:25;1.90;;;1.10;;
67804;SDS011;54603;45.638;11.714;2023-04-16T11:51:11;5.40;;;1.30;;
67804;SDS011;54603;45.638;11.714;2023-04-16T11:53:43;3.30;;;1.40;;
67804;SDS011;54603;45.638;11.714;2023-04-16T11:56:27;1.40;;;1.10;;
67804;SDS011;54603;45.638;11.714;2023-04-16T12:01:36;4.20;;;1.60;;
67804;SDS011;54603;45.638;11.714;2023-04-16T12:04:02;2.70;;;1.30;;
67804;SDS011;54603;45.638;11.714;2023-04-16T12:06:28;2.50;;;1.10;;
67804;SDS011;54603;45.638;11.714;2023-04-16T12:08:54;2.50;;;1.20;;
67804;SDS011;54603;45.638;11.714;2023-04-16T12:11:19;1.80;;;1.00;;
67804;SDS011;54603;45.638;11.714;2023-04-16T12:16:34;1.40;;;1.00;;
67804;SDS011;54603;45.638;11.714;2023-04-16T12:19:00;2.00;;;1.40;;
67804;SDS011;54603;45.638;11.714;2023-04-16T12:21:37;2.00;;;1.20;;
67804;SDS011;54603;45.638;11.714;2023-04-16T12:26:44;2.20;;;1.10;;
67804;SDS011;54603;45.638;11.714;2023-04-16T12:29:15;1.70;;;1.20;;
67804;SDS011;54603;45.638;11.714;2023-04-16T12:31:42;1.10;;;1.00;;
67804;SDS011;54603;45.638;11.714;2023-04-16T12:34:08;1.60;;;1.20;;
67804;SDS011;54603;45.638;11.714;2023-04-16T12:36:34;2.00;;;1.10;;
67804;SDS011;54603;45.638;11.714;2023-04-16T12:39:00;3.30;;;1.10;;
67804;SDS011;54603;45.638;11.714;2023-04-16T12:41:28;1.50;;;1.10;;
67804;SDS011;54603;45.638;11.714;2023-04-16T12:44:06;2.50;;;1.20;;
67804;SDS011;54603;45.638;11.714;2023-04-16T12:46:42;3.10;;;1.10;;
67804;SDS011;54603;45.638;11.714;2023-04-16T12:49:09;2.20;;;1.20;;
67804;SDS011;54603;45.638;11.714;2023-04-16T12:51:35;2.40;;;1.10;;
67804;SDS011;54603;45.638;11.714;2023-04-16T12:54:02;1.90;;;1.10;;
67804;SDS011;54603;45.638;11.714;2023-04-16T12:56:29;1.60;;;0.90;;
67804;SDS011;54603;45.638;11.714;2023-04-16T12:58:55;5.10;;;1.10;;
67804;SDS011;54603;45.638;11.714;2023-04-16T13:01:20;1.90;;;1.10;;
67804;SDS011;54603;45.638;11.714;2023-04-16T13:03:46;1.50;;;1.20;;
67804;SDS011;54603;45.638;11.714;2023-04-16T13:06:12;1.70;;;1.10;;
67804;SDS011;54603;45.638;11.714;2023-04-16T13:08:38;1.40;;;1.10;;
67804;SDS011;54603;45.638;11.714;2023-04-16T13:11:04;1.50;;;1.10;;
67804;SDS011;54603;45.638;11.714;2023-04-16T13:13:30;1.30;;;1.10;;
67804;SDS011;54603;45.638;11.714;2023-04-16T13:15:56;1.80;;;1.30;;
67804;SDS011;54603;45.638;11.714;2023-04-16T13:18:21;2.40;;;1.10;;
67804;SDS011;54603;45.638;11.714;2023-04-16T13:20:47;1.60;;;1.10;;
67804;SDS011;54603;45.638;11.714;2023-04-16T13:23:12;2.70;;;1.30;;
67804;SDS011;54603;45.638;11.714;2023-04-16T13:25:38;2.90;;;1.10;;
67804;SDS011;54603;45.638;11.714;2023-04-16T13:28:04;1.70;;;1.00;;
67804;SDS011;54603;45.638;11.714;2023-04-16T13:30:29;3.10;;;1.40;;
67804;SDS011;54603;45.638;11.714;2023-04-16T13:32:57;3.20;;;1.20;;
67804;SDS011;54603;45.638;11.714;2023-04-16T13:35:23;2.00;;;1.20;;
67804;SDS011;54603;45.638;11.714;2023-04-16T13:37:48;4.20;;;1.20;;
67804;SDS011;54603;45.638;11.714;2023-04-16T13:40:14;3.10;;;1.20;;
67804;SDS011;54603;45.638;11.714;2023-04-16T13:42:39;4.10;;;1.40;;
67804;SDS011;54603;45.638;11.714;2023-04-16T13:45:05;3.10;;;1.30;;
67804;SDS011;54603;45.638;11.714;2023-04-16T13:47:33;3.50;;;1.30;;
67804;SDS011;54603;45.638;11.714;2023-04-16T13:49:59;2.50;;;1.20;;
67804;SDS011;54603;45.638;11.714;2023-04-16T13:52:25;2.90;;;1.20;;
67804;SDS011;54603;45.638;11.714;2023-04-16T13:54:50;4.30;;;1.40;;
67804;SDS011;54603;45.638;11.714;2023-04-16T13:57:16;4.00;;;1.40;;
67804;SDS011;54603;45.638;11.714;2023-04-16T13:59:42;3.50;;;1.30;;
67804;SDS011;54603;45.638;11.714;2023-04-16T14:02:08;2.00;;;1.40;;
67804;SDS011;54603;45.638;11.714;2023-04-16T14:04:35;5.60;;;2.30;;
67804;SDS011;54603;45.638;11.714;2023-04-16T14:07:00;3.90;;;2.30;;
67804;SDS011;54603;45.638;11.714;2023-04-16T14:09:26;3.70;;;2.10;;
67804;SDS011;54603;45.638;11.714;2023-04-16T14:11:52;16.70;;;6.30;;
67804;SDS011;54603;45.638;11.714;2023-04-16T14:14:17;44.70;;;16.30;;
67804;SDS011;54603;45.638;11.714;2023-04-16T14:16:43;75.70;;;25.30;;
67804;SDS011;54603;45.638;11.714;2023-04-16T14:19:09;93.50;;;35.40;;
67804;SDS011;54603;45.638;11.714;2023-04-16T14:21:34;143.00;;;52.70;;
67804;SDS011;54603;45.638;11.714;2023-04-16T14:24:00;208.20;;;76.30;;
67804;SDS011;54603;45.638;11.714;2023-04-16T14:26:26;198.00;;;71.20;;
67804;SDS011;54603;45.638;11.714;2023-04-16T14:28:52;210.60;;;79.10;;
67804;SDS011;54603;45.638;11.714;2023-04-16T14:31:17;226.50;;;84.60;;
67804;SDS011;54603;45.638;11.714;2023-04-16T14:33:44;245.00;;;90.20;;
67804;SDS011;54603;45.638;11.714;2023-04-16T14:36:10;258.90;;;93.10;;
67804;SDS011;54603;45.638;11.714;2023-04-16T14:38:35;246.30;;;94.60;;
67804;SDS011;54603;45.638;11.714;2023-04-16T14:41:01;262.60;;;95.50;;
67804;SDS011;54603;45.638;11.714;2023-04-16T14:43:26;279.70;;;106.90;;
67804;SDS011;54603;45.638;11.714;2023-04-16T14:45:52;271.80;;;99.00;;